• Join FlightAware (Why Join?)
  • Login
  • US Flag 
10:51PM EDT


 

Airport Tracker/Info


-or-


 

Live Flight TrackerFlight Track Log ✈ AWE3202 ✈ 28-Apr-2013 ✈ KDCA - KMHT

Flight Track Log - Related Links

Times and Time Zones

All times are in EDT time to prevent confusion due to time zone crossing. See the AWE3202 flight status page for this flight to view local times or setup timezone preferences in your user account.

Time Position Orientation Groundspeed Altitude Reporting Facility
EDT Latitude Longitude Course Direction KTS MPH feet Rate Location/Type
10:11PM 38.8167 -77.0333 83° East 141 162 1,400  Level Potomac TRACON
10:14PM 39.0276 -76.5338 67° East  Level FlightAware Approximate
10:14PM 38.7386 -76.9808 152° Southeast 181 208 6,100  Level Washington Center
10:15PM 39.0773 -76.4087 61° Northeast  Level FlightAware Approximate
10:15PM 38.8058 -76.9236 34° Northeast 127 146 9,200  Level Washington Center
10:16PM 39.1167 -76.2810 90° East  Level FlightAware Approximate
10:16PM 38.8897 -76.8825 21° North 209 241 10,900  Level Washington Center
10:17PM 39.1559 -76.1575 83° East  Level FlightAware Approximate
10:17PM 38.9842 -76.8361 21° North 289 333 13,400  Level Washington Center
10:18PM 39.0786 -76.7733 27° Northeast 326 375 15,700 1,800 Climbing Washington Center
10:19PM 39.1108 -76.6456 72° East 344 396 17,100 1,500 Climbing Washington Center
10:20PM 39.1225 -76.5011 84° East 351 404 18,700 1,620 Climbing Washington Center
10:21PM 39.1381 -76.3517 82° East 395 455 20,400 1,620 Climbing Washington Center
10:22PM 39.1869 -76.2075 66° East 405 466 22,000 1,560 Climbing Washington Center
10:23PM 39.2708 -76.0553 55° Northeast 447 514 23,500 1,380 Climbing Washington Center
10:24PM 39.3464 -75.9189 54° Northeast 454 522 24,800 1,200 Climbing Washington Center
10:25PM 39.4258 -75.7797 54° Northeast 469 540 26,000 1,200 Climbing Washington Center
10:26PM 39.5094 -75.6428 52° Northeast 475 547 27,200 1,020 Climbing Washington Center
10:27PM 39.5947 -75.5028 52° Northeast 488 562 28,100 1,020 Climbing Washington Center
10:29PM 39.8000 -75.1725 51° Northeast 491 565 30,900 840 Climbing New York Center
10:30PM 39.8803 -75.0314 53° Northeast 491 565 31,000  Climbing New York Center
10:31PM 39.9731 -74.8828 51° Northeast 485 558 31,000  Level New York Center
10:32PM 40.0528 -74.7492 52° Northeast 474 545 31,000  Level New York Center
10:33PM 40.1258 -74.6231 53° Northeast 474 545 31,000  Level New York Center
10:34PM 40.2222 -74.4761 49° Northeast 474 545 31,000  Level New York Center
10:35PM 40.3214 -74.3669 40° Northeast 474 545 31,000  Level New York Center
10:36PM 40.4306 -74.2692 34° Northeast 469 540 31,000  Level New York Center
10:38PM 40.6442 -74.2233 North 458 527 31,000  Level Boston Center
10:39PM 40.7569 -74.2072 North 451 519 31,000  Level Boston Center
10:40PM 40.8781 -74.1831 North 444 511 31,000  Level Boston Center
10:41PM 40.9992 -74.1617 North 444 511 31,000  Level Boston Center
10:42PM 41.1225 -74.1347 North 444 511 31,000  Level Boston Center
10:43PM 41.2439 -74.1103 North 444 511 31,000  Level Boston Center
10:44PM 41.3653 -74.0831 10° North 444 511 31,000  Level Boston Center
10:45PM 41.4883 -74.0586 North 444 511 31,000  Level Boston Center
10:46PM 41.6158 -74.0339 North 455 524 31,000  Level Boston Center
10:47PM 41.7372 -74.0064 10° North 448 516 31,000  Level Boston Center
10:48PM 41.8689 -73.9872 North 442 509 31,000  Level Boston Center
10:49PM 41.9722 -73.8922 34° Northeast 428 493 31,000 -60 Level Boston Center
10:50PM 42.0386 -73.7400 60° Northeast 420 483 30,900 -1,200 Descending Boston Center
10:51PM 42.0986 -73.5872 62° Northeast 468 539 28,700 -2,400 Descending Boston Center
10:52PM 42.1583 -73.4372 62° Northeast 469 540 26,200 -2,400 Descending Boston Center
10:53PM 42.2222 -73.2811 61° Northeast 443 510 24,000 -1,440 Descending Boston Center
10:54PM 42.2836 -73.1444 59° Northeast 426 490 23,400 -780 Descending Boston Center
10:55PM 42.3428 -73.0103 59° Northeast 438 504 22,500 -960 Descending Boston Center
10:56PM 42.4017 -72.8786 59° Northeast 433 498 21,500 -1,080 Descending Boston Center
10:57PM 42.4561 -72.7525 60° Northeast 413 475 20,400 -1,020 Descending Boston Center
10:58PM 42.5128 -72.6261 59° Northeast 398 458 19,500 -1,020 Descending Boston Center
10:59PM 42.5692 -72.5050 58° Northeast 382 440 18,400 -1,560 Descending Boston Center
11:00PM 42.6233 -72.3808 59° Northeast 382 440 16,400 -2,100 Descending Boston Center
11:01PM 42.6775 -72.2508 60° Northeast 367 422 14,300 -1,920 Descending Boston Center
11:02PM 42.7231 -72.1489 59° Northeast 354 407 12,600 -1,440 Descending Boston Center
11:03PM 42.7875 -72.0497 48° Northeast 325 374 11,500 -1,440 Descending Boston Center
11:04PM 42.8414 -71.9814 43° Northeast 292 336 9,800 -1,740 Descending Boston Center
11:05PM 42.9036 -71.9017 43° Northeast 287 330 8,100 -1,740 Descending Boston Center
11:06PM 42.9511 -71.8386 44° Northeast 281 323 6,400 -1,920 Descending Boston Center
11:07PM 43.0047 -71.7503 50° Northeast 271 312 4,300 -1,500 Descending Boston Center
11:08PM 43.0356 -71.6731 61° Northeast 265 305 3,500 -1,020 Descending Boston Center
11:09PM 43.0517 -71.5792 77° East 233 268 2,300 -900 Descending Boston Center
11:10PM 43.0386 -71.5169 106° East 200 230 1,700 -360 Descending Boston Center
11:11PM 43.0008 -71.4750 141° Southeast 164 189 1,600 -120 Descending Boston Center